Ratho, United Kingdom
Current Conditions -  °F | °C
As of 7:20 PM on Friday 21 Nov 2014 (Local Time) from EGPH Reporting Station
Light Rain Light Rain  
Wind Chill: 42°   Ceiling: 2300
Heat Index: 46°   Visibility: 6mi
Dew Point: 43°   Wind: 9mph
Humidity: 87%   Direction: 100°E
Pressure: 29.91"   Gusts: NA
Location:  55.92°N, 3.38°W
Report Text: EGPH 211920Z 10008KT 9999 -RA BKN023 08/06 Q1013
Loading
Personal Weather Stations






























Interactive Weather Map New forecast layout! Learn more

10-Day Weather Forecast

Advertisements
Track Severe Weather on mobile